KMNI Airport Information

Runway Information
Runway 02 Length 3602 ft width 75 ft
Elevation 95 ft Threshold ft Heading 12
Runway 20 Length 3602 ft Width 75 ft
Elevation 103 ft Threshold ft Heading 192
Airport Frequencies
Type A/D Name SHAW APP/D Frequency 125.4 MHZ
Type UNIC Name CTAF/UNICO Frequency 122.8 MHZ
Airport Navaids
Airport Weather Information & NOTAM
ADDS - METARS form results

(1611 UTC 30 June 2022)
Data provider http://aviationweather.gov/metar/data/
 
METAR text: KMNI 301555Z AUTO 11004KT 10SM BKN023 BKN030 28/21 A3022 RMK AO2
Conditions at: KMNI (MANNING , SC, US) observed 1555 UTC 30 June 2022
Temperature: 28.0°C (82°F)
Dewpoint: 21.0°C (70°F) [RH = 66%]
Pressure (altimeter): 30.22 inches Hg (1023.5 mb)
Winds: from the ESE (110 degrees) at 5 MPH (4 knots; 2.1 m/s)
Visibility: 10 or more miles (16+ km)
Ceiling: 2300 feet AGL
Clouds: broken clouds at 2300 feet AGL
broken clouds at 3000 feet AGL
Weather: automated observation with no human augmentation;
there may or may not be significant weather present at this time

METAR text: KMNI 301535Z AUTO 11004KT 10SM BKN021 BKN026 27/21 A3022 RMK AO2
Conditions at: KMNI (MANNING , SC, US) observed 1535 UTC 30 June 2022
Temperature: 27.0°C (81°F)
Dewpoint: 21.0°C (70°F) [RH = 70%]
Pressure (altimeter): 30.22 inches Hg (1023.5 mb)
Winds: from the ESE (110 degrees) at 5 MPH (4 knots; 2.1 m/s)
Visibility: 10 or more miles (16+ km)
Ceiling: 2100 feet AGL
Clouds: broken clouds at 2100 feet AGL
broken clouds at 2600 feet AGL
Weather: automated observation with no human augmentation;
there may or may not be significant weather present at this time

METAR text: KMNI 301515Z AUTO 12003KT 10SM SCT019 27/22 A3022 RMK AO2
Conditions at: KMNI (MANNING , SC, US) observed 1515 UTC 30 June 2022
Temperature: 27.0°C (81°F)
Dewpoint: 22.0°C (72°F) [RH = 74%]
Pressure (altimeter): 30.22 inches Hg (1023.5 mb)
Winds: from the ESE (120 degrees) at 3 MPH (3 knots; 1.5 m/s)
Visibility: 10 or more miles (16+ km)
Ceiling: at least 12,000 feet AGL
Clouds: scattered clouds at 1900 feet AGL
Weather: automated observation with no human augmentation;
there may or may not be significant weather present at this time